createdAt,value
2023-02-12T00:00:47.364Z,1018.37
2023-02-12T00:05:47.294Z,1018.31
2023-02-12T00:10:47.239Z,1018.35
2023-02-12T00:15:47.265Z,1018.31
2023-02-12T00:20:47.098Z,1018.37
2023-02-12T00:25:47.026Z,1018.39
2023-02-12T00:30:47.097Z,1018.33
2023-02-12T00:35:46.889Z,1018.34
2023-02-12T00:40:46.840Z,1018.35
2023-02-12T00:45:46.791Z,1018.24
2023-02-12T00:50:46.711Z,1018.37
2023-02-12T00:55:46.621Z,1018.40
2023-02-12T01:00:46.612Z,1018.45
2023-02-12T01:05:46.489Z,1018.50
2023-02-12T01:10:46.442Z,1018.53
2023-02-12T01:15:46.360Z,1018.51
2023-02-12T01:20:46.300Z,1018.51
2023-02-12T01:25:46.224Z,1018.52
2023-02-12T01:30:46.213Z,1018.56
2023-02-12T01:35:46.091Z,1018.55
2023-02-12T01:40:46.029Z,1018.46
2023-02-12T01:45:45.956Z,1018.41
2023-02-12T01:50:45.905Z,1018.48
2023-02-12T01:55:45.822Z,1018.41
2023-02-12T02:00:45.772Z,1018.47
2023-02-12T02:05:45.685Z,1018.45
2023-02-12T02:10:45.635Z,1018.47
2023-02-12T02:15:45.580Z,1018.45
2023-02-12T02:20:45.502Z,1018.46
2023-02-12T02:25:45.418Z,1018.46
2023-02-12T02:30:45.689Z,1018.36
2023-02-12T02:35:45.276Z,1018.36
2023-02-12T02:40:45.228Z,1018.35
2023-02-12T02:45:45.143Z,1018.37
2023-02-12T02:50:45.094Z,1018.38
2023-02-12T02:55:45.012Z,1018.38
2023-02-12T03:00:45.018Z,1018.38
2023-02-12T03:05:44.876Z,1018.44
2023-02-12T03:10:44.817Z,1018.43
2023-02-12T03:15:44.742Z,1018.51
2023-02-12T03:20:44.686Z,1018.54
2023-02-12T03:25:44.614Z,1018.59
2023-02-12T03:30:44.581Z,1018.64
2023-02-12T03:35:44.479Z,1018.71
2023-02-12T03:40:44.421Z,1018.72
2023-02-12T03:45:44.373Z,1018.77
2023-02-12T03:50:44.309Z,1018.78
2023-02-12T03:55:44.212Z,1018.83
2023-02-12T04:00:44.300Z,1018.84
2023-02-12T04:05:44.076Z,1018.94
2023-02-12T04:10:44.023Z,1019.01
2023-02-12T04:15:43.959Z,1019.03
2023-02-12T04:20:43.891Z,1019.03
2023-02-12T04:25:43.814Z,1019.02
2023-02-12T04:30:43.867Z,1019.08
2023-02-12T04:35:43.674Z,1019.19
2023-02-12T04:40:43.623Z,1019.23
2023-02-12T04:45:43.551Z,1019.33
2023-02-12T04:50:43.488Z,1019.32
2023-02-12T04:55:43.427Z,1019.36
2023-02-12T05:00:43.351Z,1019.37
2023-02-12T05:05:43.276Z,1019.39
2023-02-12T05:10:43.221Z,1019.38
2023-02-12T05:15:43.188Z,1019.37
2023-02-12T05:20:43.093Z,1019.32
2023-02-12T05:25:43.008Z,1019.28
2023-02-12T05:30:43.109Z,1019.30
2023-02-12T05:35:42.872Z,1019.27
2023-02-12T05:40:42.815Z,1019.28
2023-02-12T05:45:42.737Z,1019.31
2023-02-12T05:50:42.678Z,1019.36
2023-02-12T05:55:42.604Z,1019.43
2023-02-12T06:00:42.583Z,1019.41
2023-02-12T06:05:42.472Z,1019.45
2023-02-12T06:10:42.411Z,1019.44
2023-02-12T06:15:42.394Z,1019.44
2023-02-12T06:20:42.304Z,1019.51
2023-02-12T06:25:42.200Z,1019.56
2023-02-12T06:30:42.148Z,1019.61
2023-02-12T06:35:42.073Z,1019.67
2023-02-12T06:40:42.014Z,1019.66
2023-02-12T06:45:41.936Z,1019.78
2023-02-12T06:50:41.881Z,1019.90
2023-02-12T06:55:41.812Z,1019.93
2023-02-12T07:00:41.850Z,1019.93
2023-02-12T07:05:41.674Z,1019.99
2023-02-12T07:10:41.620Z,1019.97
2023-02-12T07:15:41.546Z,1020.06
2023-02-12T07:20:41.488Z,1020.10
2023-02-12T07:25:41.413Z,1020.15
2023-02-12T07:30:42.666Z,1020.19
2023-02-12T07:35:41.279Z,1020.26
2023-02-12T07:40:41.217Z,1020.28
2023-02-12T07:45:41.197Z,1020.32
2023-02-12T07:50:41.077Z,1020.35
2023-02-12T07:55:41.022Z,1020.40
2023-02-12T08:00:40.940Z,1020.41
2023-02-12T08:05:40.885Z,1020.42
2023-02-12T08:10:40.808Z,1020.46
2023-02-12T08:15:40.748Z,1020.54
2023-02-12T08:20:40.675Z,1020.61
2023-02-12T08:25:40.620Z,1020.69
2023-02-12T08:30:40.636Z,1020.65
2023-02-12T08:35:40.633Z,1020.63
2023-02-12T08:40:40.687Z,1020.68
2023-02-12T08:45:40.662Z,1020.68
2023-02-12T08:50:40.629Z,1020.79
2023-02-12T08:55:40.669Z,1020.81
2023-02-12T09:00:40.758Z,1020.77
2023-02-12T09:05:40.083Z,1020.84
2023-02-12T09:10:40.010Z,1020.85
2023-02-12T09:15:39.945Z,1020.90
2023-02-12T09:20:39.887Z,1020.91
2023-02-12T09:25:39.817Z,1021.00
2023-02-12T09:30:39.790Z,1020.99
2023-02-12T09:35:39.682Z,1021.07
2023-02-12T09:40:39.612Z,1021.08
2023-02-12T09:45:39.546Z,1021.16
2023-02-12T09:50:39.474Z,1021.20
2023-02-12T09:55:39.416Z,1021.20
2023-02-12T10:00:39.342Z,1021.22
2023-02-12T10:05:39.290Z,1021.24
2023-02-12T10:10:39.215Z,1021.31
2023-02-12T10:15:39.214Z,1021.34
2023-02-12T10:20:41.433Z,1021.35
2023-02-12T10:25:39.022Z,1021.30
2023-02-12T10:30:38.980Z,1021.41
2023-02-12T10:35:38.885Z,1021.38
2023-02-12T10:40:38.807Z,1021.35
2023-02-12T10:45:38.748Z,1021.33
2023-02-12T10:50:38.671Z,1021.34
2023-02-12T10:55:38.642Z,1021.34
2023-02-12T11:00:38.546Z,1021.37
2023-02-12T11:05:39.510Z,1021.35
2023-02-12T11:10:38.409Z,1021.23
2023-02-12T11:15:38.381Z,1021.22
2023-02-12T11:20:38.274Z,1021.15
2023-02-12T11:25:38.216Z,1021.21
2023-02-12T11:30:38.140Z,1021.11
2023-02-12T11:35:38.086Z,1021.03
2023-02-12T11:40:38.010Z,1020.99
2023-02-12T11:45:37.952Z,1020.98
2023-02-12T11:50:37.879Z,1020.94
2023-02-12T11:55:37.821Z,1020.93
2023-02-12T12:00:37.753Z,1020.93
2023-02-12T12:05:37.686Z,1020.94
2023-02-12T12:10:37.611Z,1020.89
2023-02-12T12:15:37.551Z,1020.92
2023-02-12T12:20:37.479Z,1020.97
2023-02-12T12:25:37.418Z,1020.97
2023-02-12T12:30:37.423Z,1020.95
2023-02-12T12:35:37.287Z,1020.91
2023-02-12T12:40:37.211Z,1020.98
2023-02-12T12:45:37.159Z,1020.79
2023-02-12T12:50:37.081Z,1020.76
2023-02-12T12:55:37.019Z,1020.68
2023-02-12T13:00:36.947Z,1020.67
2023-02-12T13:05:36.889Z,1020.70
2023-02-12T13:10:36.817Z,1020.64
2023-02-12T13:15:36.758Z,1020.62
2023-02-12T13:20:36.679Z,1020.59
2023-02-12T13:25:36.632Z,1020.61
2023-02-12T13:30:36.573Z,1020.59
2023-02-12T13:35:36.491Z,1020.56
2023-02-12T13:40:36.416Z,1020.58
2023-02-12T13:45:36.356Z,1020.61
2023-02-12T13:50:36.289Z,1020.64
2023-02-12T13:55:36.243Z,1020.60
2023-02-12T14:00:36.170Z,1020.63
2023-02-12T14:05:36.090Z,1020.58
2023-02-12T14:10:36.023Z,1020.56
2023-02-12T14:15:36.078Z,1020.52
2023-02-12T14:20:35.883Z,1020.51
2023-02-12T14:25:35.821Z,1020.53
2023-02-12T14:30:36.765Z,1020.46
2023-02-12T14:35:35.720Z,1020.50
2023-02-12T14:40:35.615Z,1020.50
2023-02-12T14:45:35.553Z,1020.49
2023-02-12T14:50:35.479Z,1020.50
2023-02-12T14:55:35.421Z,1020.47
2023-02-12T15:00:35.345Z,1020.49
2023-02-12T15:05:35.285Z,1020.53
2023-02-12T15:10:35.214Z,1020.54
2023-02-12T15:15:35.149Z,1020.51
2023-02-12T15:20:35.079Z,1020.49
2023-02-12T15:25:35.024Z,1020.50
2023-02-12T15:30:34.945Z,1020.48
2023-02-12T15:35:34.912Z,1020.60
2023-02-12T15:40:34.815Z,1020.59
2023-02-12T15:45:34.764Z,1020.58
2023-02-12T15:50:34.682Z,1020.57
2023-02-12T15:55:34.628Z,1020.51
2023-02-12T16:00:34.543Z,1020.54
2023-02-12T16:05:35.427Z,1020.56
2023-02-12T16:10:34.426Z,1020.59
2023-02-12T16:15:34.379Z,1020.62
2023-02-12T16:20:34.283Z,1020.67
2023-02-12T16:25:34.224Z,1020.72
2023-02-12T16:30:34.193Z,1020.71
2023-02-12T16:35:34.093Z,1020.79
2023-02-12T16:40:34.046Z,1020.83
2023-02-12T16:45:33.997Z,1020.87
2023-02-12T16:50:33.887Z,1020.90
2023-02-12T16:55:33.844Z,1021.01
2023-02-12T17:00:33.773Z,1021.05
2023-02-12T17:05:33.698Z,1021.03
2023-02-12T17:10:33.625Z,1021.03
2023-02-12T17:15:33.577Z,1021.11
2023-02-12T17:20:33.505Z,1021.11
2023-02-12T17:25:33.436Z,1021.10
2023-02-12T17:30:33.363Z,1021.12
2023-02-12T17:35:33.306Z,1021.19
2023-02-12T17:40:33.251Z,1021.12
2023-02-12T17:45:33.216Z,1021.15
2023-02-12T17:50:33.099Z,1021.09
2023-02-12T17:55:33.039Z,1021.07
2023-02-12T18:00:32.964Z,1021.03
2023-02-12T18:05:32.906Z,1021.07
2023-02-12T18:10:32.831Z,1021.05
2023-02-12T18:15:32.773Z,1021.08
2023-02-12T18:20:32.706Z,1021.08
2023-02-12T18:25:32.644Z,1021.07
2023-02-12T18:30:32.731Z,1021.07
2023-02-12T18:35:32.512Z,1021.18
2023-02-12T18:40:32.436Z,1021.21
2023-02-12T18:45:32.384Z,1021.13
2023-02-12T18:50:32.318Z,1021.09
2023-02-12T18:55:32.244Z,1021.08
2023-02-12T19:00:32.174Z,1021.11
2023-02-12T19:05:32.108Z,1021.14
2023-02-12T19:10:32.036Z,1021.12
2023-02-12T19:15:32.029Z,1021.13
2023-02-12T19:20:31.910Z,1021.17
2023-02-12T19:25:31.841Z,1021.23
2023-02-12T19:30:31.776Z,1021.22
2023-02-12T19:35:31.708Z,1021.13
2023-02-12T19:40:31.639Z,1021.20
2023-02-12T19:45:31.581Z,1021.21
2023-02-12T19:50:33.224Z,1021.23
2023-02-12T19:55:31.454Z,1021.22
2023-02-12T20:00:31.378Z,1021.19
2023-02-12T20:05:31.316Z,1021.16
2023-02-12T20:10:31.242Z,1021.17
2023-02-12T20:15:31.206Z,1021.22
2023-02-12T20:20:31.110Z,1021.23
2023-02-12T20:25:31.058Z,1021.26
2023-02-12T20:30:30.979Z,1021.24
2023-02-12T20:35:30.927Z,1021.32
2023-02-12T20:40:30.845Z,1021.25
2023-02-12T20:45:30.787Z,1021.25
2023-02-12T20:50:30.713Z,1021.22
2023-02-12T20:55:30.653Z,1021.22
2023-02-12T21:00:30.581Z,1021.24
2023-02-12T21:05:30.521Z,1021.28
2023-02-12T21:10:30.441Z,1021.30
2023-02-12T21:15:30.384Z,1021.29
2023-02-12T21:20:30.315Z,1021.35
2023-02-12T21:25:30.249Z,1021.38
2023-02-12T21:30:30.176Z,1021.43
2023-02-12T21:35:30.113Z,1021.44
2023-02-12T21:40:30.039Z,1021.49
2023-02-12T21:45:30.062Z,1021.54
2023-02-12T21:50:29.909Z,1021.50
2023-02-12T21:55:29.844Z,1021.45
2023-02-12T22:00:29.795Z,1021.43
2023-02-12T22:05:29.710Z,1021.39
2023-02-12T22:10:29.637Z,1021.40
2023-02-12T22:15:29.578Z,1021.43
2023-02-12T22:20:29.514Z,1021.49
2023-02-12T22:25:29.446Z,1021.46
2023-02-12T22:30:29.365Z,1021.44
2023-02-12T22:35:29.304Z,1021.45
2023-02-12T22:40:29.232Z,1021.44
2023-02-12T22:45:29.209Z,1021.49
2023-02-12T22:50:29.100Z,1021.51
2023-02-12T22:55:29.033Z,1021.49
2023-02-12T23:00:28.960Z,1021.48
2023-02-12T23:05:28.901Z,1021.45
2023-02-12T23:10:28.826Z,1021.42
2023-02-12T23:15:28.765Z,1021.39
2023-02-12T23:20:28.728Z,1021.37
2023-02-12T23:25:28.644Z,1021.36
2023-02-12T23:30:28.603Z,1021.40
2023-02-12T23:35:28.526Z,1021.35
2023-02-12T23:40:28.465Z,1021.27
2023-02-12T23:45:28.405Z,1021.27
2023-02-12T23:50:28.329Z,1021.29
2023-02-12T23:55:28.265Z,1021.28
